sensor_id;sensor_type;location;lat;lon;timestamp;pressure;altitude;pressure_sealevel;temperature;humidity
8477;BME280;4275;42.854;23.222;2024-03-22T00:00:07;50008.06;;;-141.02;84.10
8477;BME280;4275;42.854;23.222;2024-03-22T00:02:36;49961.91;;;-141.02;84.44
8477;BME280;4275;42.854;23.222;2024-03-22T00:05:03;49923.41;;;-141.02;81.62
8477;BME280;4275;42.854;23.222;2024-03-22T00:07:30;49915.72;;;-141.02;79.80
8477;BME280;4275;42.854;23.222;2024-03-22T00:09:56;49921.50;;;-141.02;77.99
8477;BME280;4275;42.854;23.222;2024-03-22T00:12:23;49819.53;;;-141.02;76.25
8477;BME280;4275;42.854;23.222;2024-03-22T00:14:49;49917.66;;;-141.02;76.65
8477;BME280;4275;42.854;23.222;2024-03-22T00:17:18;49904.19;;;-141.02;77.68
8477;BME280;4275;42.854;23.222;2024-03-22T00:19:44;49913.81;;;-141.02;81.45
8477;BME280;4275;42.854;23.222;2024-03-22T00:22:10;49892.63;;;-141.02;81.47
8477;BME280;4275;42.854;23.222;2024-03-22T00:24:36;49971.50;;;-141.02;83.67
8477;BME280;4275;42.854;23.222;2024-03-22T00:27:03;49931.13;;;-141.02;84.08
8477;BME280;4275;42.854;23.222;2024-03-22T00:29:30;50002.28;;;-141.02;85.40
8477;BME280;4275;42.854;23.222;2024-03-22T00:31:56;50069.63;;;-141.02;85.90
8477;BME280;4275;42.854;23.222;2024-03-22T00:34:24;49969.59;;;-141.02;81.85
8477;BME280;4275;42.854;23.222;2024-03-22T00:36:52;50038.84;;;-141.02;81.35
8477;BME280;4275;42.854;23.222;2024-03-22T00:39:18;50096.56;;;-141.02;79.60
8477;BME280;4275;42.854;23.222;2024-03-22T00:41:44;50100.41;;;-141.02;78.46
8477;BME280;4275;42.854;23.222;2024-03-22T00:44:10;50075.41;;;-141.02;78.98
8477;BME280;4275;42.854;23.222;2024-03-22T00:46:37;50167.75;;;-141.02;80.86
8477;BME280;4275;42.854;23.222;2024-03-22T00:49:03;50177.38;;;-141.02;81.70
8477;BME280;4275;42.854;23.222;2024-03-22T00:51:32;50152.34;;;-141.02;83.12
8477;BME280;4275;42.854;23.222;2024-03-22T00:53:57;50160.06;;;-141.02;82.82
8477;BME280;4275;42.854;23.222;2024-03-22T00:56:24;50204.31;;;-141.02;82.54
8477;BME280;4275;42.854;23.222;2024-03-22T00:58:50;50258.19;;;-141.02;83.02
8477;BME280;4275;42.854;23.222;2024-03-22T01:01:17;50196.59;;;-141.02;83.43
8477;BME280;4275;42.854;23.222;2024-03-22T01:03:43;50364.00;;;-141.02;84.55
8477;BME280;4275;42.854;23.222;2024-03-22T01:06:10;50185.06;;;-141.02;86.02
8477;BME280;4275;42.854;23.222;2024-03-22T01:08:37;50208.16;;;-141.02;85.38
8477;BME280;4275;42.854;23.222;2024-03-22T01:11:04;50242.78;;;-141.02;86.69
8477;BME280;4275;42.854;23.222;2024-03-22T01:13:30;50265.88;;;-141.02;87.47
8477;BME280;4275;42.854;23.222;2024-03-22T01:15:57;50419.78;;;-141.02;90.27
8477;BME280;4275;42.854;23.222;2024-03-22T01:18:23;50340.91;;;-141.02;89.35
8477;BME280;4275;42.854;23.222;2024-03-22T01:20:50;50323.59;;;-141.02;89.41
8477;BME280;4275;42.854;23.222;2024-03-22T01:23:16;50496.75;;;-141.02;89.19
8477;BME280;4275;42.854;23.222;2024-03-22T01:25:46;50566.03;;;-141.02;86.87
8477;BME280;4275;42.854;23.222;2024-03-22T01:28:12;50685.31;;;-141.02;83.70
8477;BME280;4275;42.854;23.222;2024-03-22T01:30:39;50721.88;;;-141.02;82.94
8477;BME280;4275;42.854;23.222;2024-03-22T01:33:05;50743.06;;;-141.02;81.53
8477;BME280;4275;42.854;23.222;2024-03-22T01:35:32;50789.25;;;-141.02;80.15
8477;BME280;4275;42.854;23.222;2024-03-22T01:37:58;50800.78;;;-141.02;80.04
8477;BME280;4275;42.854;23.222;2024-03-22T01:40:25;50789.25;;;-141.02;80.02
8477;BME280;4275;42.854;23.222;2024-03-22T01:42:55;50535.25;;;-141.02;80.34
8477;BME280;4275;42.854;23.222;2024-03-22T01:45:22;50417.88;;;-141.02;79.80
8477;BME280;4275;42.854;23.222;2024-03-22T01:47:50;50315.91;;;-141.02;79.57
8477;BME280;4275;42.854;23.222;2024-03-22T01:50:17;50269.72;;;-141.02;80.77
8477;BME280;4275;42.854;23.222;2024-03-22T01:52:44;50165.81;;;-141.02;82.27
8477;BME280;4275;42.854;23.222;2024-03-22T01:55:11;50192.75;;;-141.02;83.31
8477;BME280;4275;42.854;23.222;2024-03-22T01:57:38;50135.03;;;-141.02;84.17
8477;BME280;4275;42.854;23.222;2024-03-22T02:00:07;50288.97;;;-141.02;85.79
8477;BME280;4275;42.854;23.222;2024-03-22T02:02:34;50215.84;;;-141.02;86.47
8477;BME280;4275;42.854;23.222;2024-03-22T02:05:11;50223.53;;;-141.02;87.30
8477;BME280;4275;42.854;23.222;2024-03-22T02:07:37;50227.41;;;-141.02;86.21
8477;BME280;4275;42.854;23.222;2024-03-22T02:10:05;50288.97;;;-141.02;88.08
8477;BME280;4275;42.854;23.222;2024-03-22T02:12:33;50217.78;;;-141.02;87.21
8477;BME280;4275;42.854;23.222;2024-03-22T02:15:01;50267.78;;;-141.02;89.27
8477;BME280;4275;42.854;23.222;2024-03-22T02:17:28;50904.69;;;-141.02;89.84
8477;BME280;4275;42.854;23.222;2024-03-22T02:19:55;50458.28;;;-141.02;89.90
8477;BME280;4275;42.854;23.222;2024-03-22T02:22:22;50408.25;;;-141.02;87.78
8477;BME280;4275;42.854;23.222;2024-03-22T02:24:50;50541.00;;;-141.02;91.23
8477;BME280;4275;42.854;23.222;2024-03-22T02:27:16;50439.03;;;-141.02;89.68
8477;BME280;4275;42.854;23.222;2024-03-22T02:29:42;50569.88;;;-141.02;91.30
8477;BME280;4275;42.854;23.222;2024-03-22T02:32:09;50623.75;;;-141.02;89.84
8477;BME280;4275;42.854;23.222;2024-03-22T02:34:36;50762.28;;;-141.02;92.41
8477;BME280;4275;42.854;23.222;2024-03-22T02:37:03;50735.34;;;-141.02;91.42
8477;BME280;4275;42.854;23.222;2024-03-22T02:39:29;50804.63;;;-141.02;91.47
8477;BME280;4275;42.854;23.222;2024-03-22T02:41:57;51127.94;;;-141.02;94.98
8477;BME280;4275;42.854;23.222;2024-03-22T02:44:23;51389.66;;;-141.02;95.50
8477;BME280;4275;42.854;23.222;2024-03-22T02:46:50;51751.50;;;-141.02;96.47
8477;BME280;4275;42.854;23.222;2024-03-22T02:49:16;51747.66;;;-141.02;94.52
8477;BME280;4275;42.854;23.222;2024-03-22T02:51:43;51930.53;;;-141.02;98.07
8477;BME280;4275;42.854;23.222;2024-03-22T02:54:09;52613.94;;;-141.02;100.00
8477;BME280;4275;42.854;23.222;2024-03-22T02:56:36;52875.81;;;-141.02;100.00
8477;BME280;4275;42.854;23.222;2024-03-22T02:59:03;53103.00;;;-141.02;100.00
8477;BME280;4275;42.854;23.222;2024-03-22T03:01:30;53083.75;;;-141.02;99.88
8477;BME280;4275;42.854;23.222;2024-03-22T03:03:56;53103.00;;;-141.02;98.67
8477;BME280;4275;42.854;23.222;2024-03-22T03:06:23;53093.38;;;-141.02;99.36
8477;BME280;4275;42.854;23.222;2024-03-22T03:08:50;53245.50;;;-141.02;100.00
8477;BME280;4275;42.854;23.222;2024-03-22T03:11:16;53499.72;;;-141.02;100.00
8477;BME280;4275;42.854;23.222;2024-03-22T03:13:42;53628.75;;;-141.02;100.00
8477;BME280;4275;42.854;23.222;2024-03-22T03:16:11;53873.34;;;-141.02;100.00
8477;BME280;4275;42.854;23.222;2024-03-22T03:18:37;54191.16;;;-141.02;100.00
8477;BME280;4275;42.854;23.222;2024-03-22T03:21:04;54420.38;;;-141.02;100.00
8477;BME280;4275;42.854;23.222;2024-03-22T03:23:30;54273.97;;;-141.02;99.12
8477;BME280;4275;42.854;23.222;2024-03-22T03:25:57;54019.72;;;-141.02;95.50
8477;BME280;4275;42.854;23.222;2024-03-22T03:28:22;53892.59;;;-141.02;95.16
8477;BME280;4275;42.854;23.222;2024-03-22T03:30:51;53707.72;;;-141.02;97.67
8477;BME280;4275;42.854;23.222;2024-03-22T03:33:18;53723.13;;;-141.02;99.36
8477;BME280;4275;42.854;23.222;2024-03-22T03:35:46;54085.22;;;-141.02;98.64
8477;BME280;4275;42.854;23.222;2024-03-22T03:38:12;53944.59;;;-141.02;98.28
8477;BME280;4275;42.854;23.222;2024-03-22T03:40:39;53908.00;;;-141.02;98.89
8477;BME280;4275;42.854;23.222;2024-03-22T03:43:05;53857.94;;;-141.02;96.14
8477;BME280;4275;42.854;23.222;2024-03-22T03:45:32;53915.72;;;-141.02;97.23
8477;BME280;4275;42.854;23.222;2024-03-22T03:47:58;53703.84;;;-141.02;97.46
8477;BME280;4275;42.854;23.222;2024-03-22T03:50:26;53707.72;;;-141.02;97.58
8477;BME280;4275;42.854;23.222;2024-03-22T03:52:52;53617.19;;;-141.02;99.20
8477;BME280;4275;42.854;23.222;2024-03-22T03:55:19;53931.13;;;-141.02;98.50
8477;BME280;4275;42.854;23.222;2024-03-22T03:57:45;53644.16;;;-141.02;98.02
8477;BME280;4275;42.854;23.222;2024-03-22T04:00:12;53642.22;;;-141.02;98.26
8477;BME280;4275;42.854;23.222;2024-03-22T04:02:38;53692.28;;;-141.02;99.83
8477;BME280;4275;42.854;23.222;2024-03-22T04:05:05;53773.19;;;-141.02;97.95
8477;BME280;4275;42.854;23.222;2024-03-22T04:07:33;53632.59;;;-141.02;99.36
8477;BME280;4275;42.854;23.222;2024-03-22T04:10:00;53771.25;;;-141.02;100.00
8477;BME280;4275;42.854;23.222;2024-03-22T04:12:26;53867.56;;;-141.02;100.00
8477;BME280;4275;42.854;23.222;2024-03-22T04:14:53;53881.03;;;-141.02;100.00
8477;BME280;4275;42.854;23.222;2024-03-22T04:17:19;54038.97;;;-141.02;100.00
8477;BME280;4275;42.854;23.222;2024-03-22T04:19:46;54233.53;;;-141.02;100.00
8477;BME280;4275;42.854;23.222;2024-03-22T04:22:12;54146.84;;;-141.02;100.00
8477;BME280;4275;42.854;23.222;2024-03-22T04:24:40;54535.97;;;-141.02;100.00
8477;BME280;4275;42.854;23.222;2024-03-22T04:27:06;55142.84;;;-141.02;100.00
8477;BME280;4275;42.854;23.222;2024-03-22T04:29:33;55541.69;;;-141.02;100.00
8477;BME280;4275;42.854;23.222;2024-03-22T04:31:59;55480.03;;;-141.02;100.00
8477;BME280;4275;42.854;23.222;2024-03-22T04:34:26;55487.75;;;-141.02;100.00
8477;BME280;4275;42.854;23.222;2024-03-22T04:36:52;55857.75;;;-141.02;100.00
8477;BME280;4275;42.854;23.222;2024-03-22T04:39:19;56250.91;;;-141.02;100.00
8477;BME280;4275;42.854;23.222;2024-03-22T04:41:48;56497.63;;;-141.02;100.00
8477;BME280;4275;42.854;23.222;2024-03-22T04:44:15;56651.81;;;-141.02;100.00
8477;BME280;4275;42.854;23.222;2024-03-22T04:46:41;56482.19;;;-141.02;100.00
8477;BME280;4275;42.854;23.222;2024-03-22T04:49:08;56755.91;;;-141.02;100.00
8477;BME280;4275;42.854;23.222;2024-03-22T04:51:34;56235.47;;;-141.02;100.00
8477;BME280;4275;42.854;23.222;2024-03-22T04:54:01;56169.94;;;-141.02;100.00
8477;BME280;4275;42.854;23.222;2024-03-22T04:56:27;56364.63;;;-141.02;100.00
8477;BME280;4275;42.854;23.222;2024-03-22T04:58:55;56613.28;;;-141.02;100.00
8477;BME280;4275;42.854;23.222;2024-03-22T05:01:21;57110.63;;;-141.02;100.00
8477;BME280;4275;42.854;23.222;2024-03-22T05:03:49;57070.13;;;-141.02;100.00
8477;BME280;4275;42.854;23.222;2024-03-22T05:06:15;57180.03;;;-141.02;100.00
8477;BME280;4275;42.854;23.222;2024-03-22T05:08:42;57588.78;;;-141.02;100.00
8477;BME280;4275;42.854;23.222;2024-03-22T05:11:08;57615.75;;;-141.02;100.00
8477;BME280;4275;42.854;23.222;2024-03-22T05:13:35;57288.00;;;-141.02;100.00
8477;BME280;4275;42.854;23.222;2024-03-22T05:16:02;57887.66;;;-141.02;100.00
8477;BME280;4275;42.854;23.222;2024-03-22T05:18:29;58099.78;;;-141.02;100.00
8477;BME280;4275;42.854;23.222;2024-03-22T05:20:56;57218.59;;;-141.02;100.00
8477;BME280;4275;42.854;23.222;2024-03-22T05:23:23;57608.06;;;-141.02;100.00
8477;BME280;4275;42.854;23.222;2024-03-22T05:25:49;57793.16;;;-141.02;100.00
8477;BME280;4275;42.854;23.222;2024-03-22T05:28:16;57060.50;;;-141.02;100.00
8477;BME280;4275;42.854;23.222;2024-03-22T05:30:42;56929.41;;;-141.02;99.79
8477;BME280;4275;42.854;23.222;2024-03-22T05:33:10;56570.88;;;-141.02;98.51
8477;BME280;4275;42.854;23.222;2024-03-22T05:35:36;56721.22;;;-141.02;98.86
8477;BME280;4275;42.854;23.222;2024-03-22T05:38:03;57062.44;;;-141.02;99.13
8477;BME280;4275;42.854;23.222;2024-03-22T05:40:29;56659.53;;;-141.02;97.39
8477;BME280;4275;42.854;23.222;2024-03-22T05:42:56;56301.00;;;-141.02;97.00
8477;BME280;4275;42.854;23.222;2024-03-22T05:45:22;56605.56;;;-141.02;98.64
8477;BME280;4275;42.854;23.222;2024-03-22T05:47:49;56921.69;;;-141.02;98.46
8477;BME280;4275;42.854;23.222;2024-03-22T05:50:16;56728.94;;;-141.02;96.23
8477;BME280;4275;42.854;23.222;2024-03-22T05:52:43;56412.81;;;-141.02;96.91
8477;BME280;4275;42.854;23.222;2024-03-22T05:55:09;56507.25;;;-141.02;96.46
8477;BME280;4275;42.854;23.222;2024-03-22T05:57:36;56570.88;;;-141.02;95.27
8477;BME280;4275;42.854;23.222;2024-03-22T06:00:03;55973.38;;;-141.02;92.37
8477;BME280;4275;42.854;23.222;2024-03-22T06:02:30;55979.16;;;-141.02;91.88
8477;BME280;4275;42.854;23.222;2024-03-22T06:04:55;56389.69;;;-141.02;90.81
8477;BME280;4275;42.854;23.222;2024-03-22T06:07:24;55929.03;;;-141.02;88.75
8477;BME280;4275;42.854;23.222;2024-03-22T06:09:50;56112.13;;;-141.02;89.68
8477;BME280;4275;42.854;23.222;2024-03-22T06:12:18;56709.66;;;-141.02;90.83
8477;BME280;4275;42.854;23.222;2024-03-22T06:14:44;57097.13;;;-141.02;90.96
8477;BME280;4275;42.854;23.222;2024-03-22T06:17:12;57338.13;;;-141.02;90.11
8477;BME280;4275;42.854;23.222;2024-03-22T06:19:38;55927.13;;;-141.02;86.51
8477;BME280;4275;42.854;23.222;2024-03-22T06:22:05;55873.16;;;-141.02;86.18
8477;BME280;4275;42.854;23.222;2024-03-22T06:24:32;55767.16;;;-141.02;86.07
8477;BME280;4275;42.854;23.222;2024-03-22T06:26:59;55587.94;;;-141.02;87.52
8477;BME280;4275;42.854;23.222;2024-03-22T06:29:26;55796.06;;;-141.02;88.89
8477;BME280;4275;42.854;23.222;2024-03-22T06:31:52;55838.47;;;-141.02;88.00
8477;BME280;4275;42.854;23.222;2024-03-22T06:34:18;56112.13;;;-141.02;88.13
8477;BME280;4275;42.854;23.222;2024-03-22T06:36:45;55869.31;;;-141.02;88.23
8477;BME280;4275;42.854;23.222;2024-03-22T06:39:12;55429.94;;;-141.02;87.79
8477;BME280;4275;42.854;23.222;2024-03-22T06:41:41;55996.50;;;-141.02;88.85
8477;BME280;4275;42.854;23.222;2024-03-22T06:44:07;56328.00;;;-141.02;86.31
8477;BME280;4275;42.854;23.222;2024-03-22T06:46:37;55510.88;;;-141.02;84.96
8477;BME280;4275;42.854;23.222;2024-03-22T06:49:03;55547.47;;;-141.02;85.54
8477;BME280;4275;42.854;23.222;2024-03-22T06:51:30;56376.19;;;-141.02;86.54
8477;BME280;4275;42.854;23.222;2024-03-22T06:53:56;56393.53;;;-141.02;85.40
8477;BME280;4275;42.854;23.222;2024-03-22T06:56:23;56927.47;;;-141.02;83.94
8477;BME280;4275;42.854;23.222;2024-03-22T06:58:50;57045.06;;;-141.02;84.11
8477;BME280;4275;42.854;23.222;2024-03-22T07:01:17;58144.13;;;-141.02;84.85
8477;BME280;4275;42.854;23.222;2024-03-22T07:03:43;57569.50;;;-141.02;83.21
8477;BME280;4275;42.854;23.222;2024-03-22T07:06:11;58147.97;;;-141.02;84.42
8477;BME280;4275;42.854;23.222;2024-03-22T07:08:37;59231.94;;;-141.02;84.31
8477;BME280;4275;42.854;23.222;2024-03-22T07:11:05;58398.69;;;-141.02;81.41
8477;BME280;4275;42.854;23.222;2024-03-22T07:13:31;59590.78;;;-141.02;82.94
8477;BME280;4275;42.854;23.222;2024-03-22T07:16:00;58823.00;;;-141.02;81.29
8477;BME280;4275;42.854;23.222;2024-03-22T07:18:26;58851.94;;;-141.02;79.38
8477;BME280;4275;42.854;23.222;2024-03-22T07:20:53;58475.84;;;-141.02;79.07
8477;BME280;4275;42.854;23.222;2024-03-22T07:23:19;59039.06;;;-141.02;79.55
8477;BME280;4275;42.854;23.222;2024-03-22T07:25:46;59390.13;;;-141.02;79.00
8477;BME280;4275;42.854;23.222;2024-03-22T07:28:13;60204.34;;;-141.02;79.30
8477;BME280;4275;42.854;23.222;2024-03-22T07:30:41;58296.47;;;-141.02;75.62
8477;BME280;4275;42.854;23.222;2024-03-22T07:33:10;58281.06;;;-141.02;77.11
8477;BME280;4275;42.854;23.222;2024-03-22T07:35:38;59139.34;;;-141.02;77.90
8477;BME280;4275;42.854;23.222;2024-03-22T07:38:04;58765.16;;;-141.02;77.04
8477;BME280;4275;42.854;23.222;2024-03-22T07:40:32;59500.09;;;-141.02;78.34
8477;BME280;4275;42.854;23.222;2024-03-22T07:42:58;60227.50;;;-141.02;77.38
8477;BME280;4275;42.854;23.222;2024-03-22T07:45:25;60528.53;;;-141.02;78.83
8477;BME280;4275;42.854;23.222;2024-03-22T07:47:51;59926.50;;;-141.02;77.16
8477;BME280;4275;42.854;23.222;2024-03-22T07:50:19;60910.66;;;-141.02;78.66
8477;BME280;4275;42.854;23.222;2024-03-22T07:52:45;63115.47;;;-141.02;79.40
8477;BME280;4275;42.854;23.222;2024-03-22T07:55:12;61559.22;;;-141.02;76.68
8477;BME280;4275;42.854;23.222;2024-03-22T07:57:38;60484.16;;;-141.02;75.67
8477;BME280;4275;42.854;23.222;2024-03-22T08:00:06;60441.69;;;-141.02;77.62
8477;BME280;4275;42.854;23.222;2024-03-22T08:02:32;61142.28;;;-141.02;76.39
8477;BME280;4275;42.854;23.222;2024-03-22T08:04:59;61599.75;;;-141.02;76.45
8477;BME280;4275;42.854;23.222;2024-03-22T08:07:28;64579.72;;;-141.02;79.38
8477;BME280;4275;42.854;23.222;2024-03-22T08:09:55;62362.38;;;-141.02;74.07
8477;BME280;4275;42.854;23.222;2024-03-22T08:12:21;63026.63;;;-141.02;75.79
8477;BME280;4275;42.854;23.222;2024-03-22T08:14:48;61655.75;;;-141.02;74.02
8477;BME280;4275;42.854;23.222;2024-03-22T08:17:14;62657.78;;;-141.02;75.81
8477;BME280;4275;42.854;23.222;2024-03-22T08:19:41;62447.31;;;-141.02;73.84
8477;BME280;4275;42.854;23.222;2024-03-22T08:22:07;62248.44;;;-141.02;72.74
8477;BME280;4275;42.854;23.222;2024-03-22T08:24:35;60682.94;;;-141.02;71.38
8477;BME280;4275;42.854;23.222;2024-03-22T08:27:01;61310.22;;;-141.02;72.19
8477;BME280;4275;42.854;23.222;2024-03-22T08:29:29;61356.53;;;-141.02;72.67
8477;BME280;4275;42.854;23.222;2024-03-22T08:31:54;60466.78;;;-141.02;71.49
8477;BME280;4275;42.854;23.222;2024-03-22T08:34:21;61009.09;;;-141.02;72.87
8477;BME280;4275;42.854;23.222;2024-03-22T08:36:48;60594.16;;;-141.02;73.09
8477;BME280;4275;42.854;23.222;2024-03-22T08:39:15;61316.00;;;-141.02;72.66
8477;BME280;4275;42.854;23.222;2024-03-22T08:41:42;62265.81;;;-141.02;71.24
8477;BME280;4275;42.854;23.222;2024-03-22T08:44:10;62904.97;;;-141.02;72.94
8477;BME280;4275;42.854;23.222;2024-03-22T08:46:36;62009.03;;;-141.02;69.72
8477;BME280;4275;42.854;23.222;2024-03-22T08:49:03;61246.50;;;-141.02;71.21
8477;BME280;4275;42.854;23.222;2024-03-22T08:51:28;61787.00;;;-141.02;71.43
8477;BME280;4275;42.854;23.222;2024-03-22T08:53:56;61314.06;;;-141.02;70.15
8477;BME280;4275;42.854;23.222;2024-03-22T08:56:21;61084.38;;;-141.02;71.07
8477;BME280;4275;42.854;23.222;2024-03-22T08:58:50;60159.97;;;-141.02;70.11
8477;BME280;4275;42.854;23.222;2024-03-22T09:01:16;60312.41;;;-141.02;69.48
8477;BME280;4275;42.854;23.222;2024-03-22T09:03:43;61053.50;;;-141.02;69.38
8477;BME280;4275;42.854;23.222;2024-03-22T09:06:11;61234.94;;;-141.02;69.46
8477;BME280;4275;42.854;23.222;2024-03-22T09:08:38;60559.41;;;-141.02;68.67
8477;BME280;4275;42.854;23.222;2024-03-22T09:11:04;61698.22;;;-141.02;69.61
8477;BME280;4275;42.854;23.222;2024-03-22T09:13:32;62103.63;;;-141.02;69.18
8477;BME280;4275;42.854;23.222;2024-03-22T09:16:02;61852.66;;;-141.02;68.73
8477;BME280;4275;42.854;23.222;2024-03-22T09:18:29;59814.59;;;-141.02;68.97
8477;BME280;4275;42.854;23.222;2024-03-22T09:20:55;61200.19;;;-141.02;69.58
8477;BME280;4275;42.854;23.222;2024-03-22T09:23:22;60601.88;;;-141.02;67.56
8477;BME280;4275;42.854;23.222;2024-03-22T09:25:48;61808.25;;;-141.02;68.03
8477;BME280;4275;42.854;23.222;2024-03-22T09:28:15;61051.56;;;-141.02;66.70
8477;BME280;4275;42.854;23.222;2024-03-22T09:30:41;61011.03;;;-141.02;66.80
8477;BME280;4275;42.854;23.222;2024-03-22T09:33:10;61566.94;;;-141.02;66.56
8477;BME280;4275;42.854;23.222;2024-03-22T09:35:36;61621.00;;;-141.02;67.18
8477;BME280;4275;42.854;23.222;2024-03-22T09:38:03;62769.78;;;-141.02;66.56
8477;BME280;4275;42.854;23.222;2024-03-22T09:40:29;63708.44;;;-141.02;66.44
8477;BME280;4275;42.854;23.222;2024-03-22T09:43:01;61734.88;;;-141.02;65.85
8477;BME280;4275;42.854;23.222;2024-03-22T09:45:28;60972.44;;;-141.02;67.53
8477;BME280;4275;42.854;23.222;2024-03-22T09:47:56;58456.56;;;-141.02;66.03
8477;BME280;4275;42.854;23.222;2024-03-22T09:50:25;58360.13;;;-141.02;67.49
8477;BME280;4275;42.854;23.222;2024-03-22T09:52:52;57345.84;;;-141.02;68.23
8477;BME280;4275;42.854;23.222;2024-03-22T09:55:20;57386.31;;;-141.02;69.86
8477;BME280;4275;42.854;23.222;2024-03-22T09:57:49;58269.47;;;-141.02;68.50
8477;BME280;4275;42.854;23.222;2024-03-22T10:00:18;59131.63;;;-141.02;68.33
8477;BME280;4275;42.854;23.222;2024-03-22T10:02:46;59212.66;;;-141.02;68.66
8477;BME280;4275;42.854;23.222;2024-03-22T10:05:13;58076.63;;;-141.02;67.68
8477;BME280;4275;42.854;23.222;2024-03-22T10:07:43;57951.28;;;-141.02;69.26
8477;BME280;4275;42.854;23.222;2024-03-22T10:10:09;58186.56;;;-141.02;68.57
8477;BME280;4275;42.854;23.222;2024-03-22T10:12:36;58909.81;;;-141.02;68.95
8477;BME280;4275;42.854;23.222;2024-03-22T10:15:02;59112.34;;;-141.02;67.62
8477;BME280;4275;42.854;23.222;2024-03-22T10:17:29;58942.59;;;-141.02;67.62
8477;BME280;4275;42.854;23.222;2024-03-22T10:19:55;57521.28;;;-141.02;67.00
8477;BME280;4275;42.854;23.222;2024-03-22T10:22:22;57039.28;;;-141.02;67.99
8477;BME280;4275;42.854;23.222;2024-03-22T10:24:51;56993.03;;;-141.02;67.91
8477;BME280;4275;42.854;23.222;2024-03-22T10:27:19;58093.97;;;-141.02;66.63
8477;BME280;4275;42.854;23.222;2024-03-22T10:29:45;59326.47;;;-141.02;67.80
8477;BME280;4275;42.854;23.222;2024-03-22T10:32:16;58597.34;;;-141.02;66.58
8477;BME280;4275;42.854;23.222;2024-03-22T10:34:42;60964.72;;;-141.02;67.45
8477;BME280;4275;42.854;23.222;2024-03-22T10:37:14;59459.59;;;-141.02;65.95
8477;BME280;4275;42.854;23.222;2024-03-22T10:39:42;59343.84;;;-141.02;66.76
8477;BME280;4275;42.854;23.222;2024-03-22T10:42:11;59187.59;;;-141.02;66.16
8477;BME280;4275;42.854;23.222;2024-03-22T10:44:38;58495.13;;;-141.02;66.09
8477;BME280;4275;42.854;23.222;2024-03-22T10:47:06;58414.13;;;-141.02;66.53
8477;BME280;4275;42.854;23.222;2024-03-22T10:49:37;57153.03;;;-141.02;66.35
8477;BME280;4275;42.854;23.222;2024-03-22T10:52:07;57338.13;;;-141.02;66.46
8477;BME280;4275;42.854;23.222;2024-03-22T10:54:39;57677.47;;;-141.02;66.82
8477;BME280;4275;42.854;23.222;2024-03-22T10:57:14;56746.28;;;-141.02;66.20
8477;BME280;4275;42.854;23.222;2024-03-22T10:59:41;58371.69;;;-141.02;67.50
8477;BME280;4275;42.854;23.222;2024-03-22T11:02:10;58946.47;;;-141.02;65.74
8477;BME280;4275;42.854;23.222;2024-03-22T11:04:36;60196.63;;;-141.02;67.70
8477;BME280;4275;42.854;23.222;2024-03-22T11:07:04;58628.19;;;-141.02;64.93
8477;BME280;4275;42.854;23.222;2024-03-22T11:09:30;57048.94;;;-141.02;64.41
8477;BME280;4275;42.854;23.222;2024-03-22T11:11:57;57386.31;;;-141.02;65.03
8477;BME280;4275;42.854;23.222;2024-03-22T11:14:26;57230.16;;;-141.02;64.74
8477;BME280;4275;42.854;23.222;2024-03-22T11:16:54;57770.03;;;-141.02;64.88
8477;BME280;4275;42.854;23.222;2024-03-22T11:19:20;57895.38;;;-141.02;64.19
8477;BME280;4275;42.854;23.222;2024-03-22T11:21:47;60026.81;;;-141.02;65.20
8477;BME280;4275;42.854;23.222;2024-03-22T11:24:13;61889.34;;;-141.02;63.18
8477;BME280;4275;42.854;23.222;2024-03-22T11:26:40;59731.63;;;-141.02;62.70
8477;BME280;4275;42.854;23.222;2024-03-22T11:29:06;59573.41;;;-141.02;63.26
8477;BME280;4275;42.854;23.222;2024-03-22T11:31:35;58805.66;;;-141.02;64.51
8477;BME280;4275;42.854;23.222;2024-03-22T11:34:02;57627.34;;;-141.02;64.24
8477;BME280;4275;42.854;23.222;2024-03-22T11:36:29;56807.97;;;-141.02;63.34
8477;BME280;4275;42.854;23.222;2024-03-22T11:38:55;56486.06;;;-141.02;63.17
8477;BME280;4275;42.854;23.222;2024-03-22T11:41:25;56046.59;;;-141.02;64.13
8477;BME280;4275;42.854;23.222;2024-03-22T11:43:52;56102.50;;;-141.02;64.32
8477;BME280;4275;42.854;23.222;2024-03-22T11:46:18;56640.25;;;-141.02;64.33
8477;BME280;4275;42.854;23.222;2024-03-22T11:48:52;55780.66;;;-141.02;64.07
8477;BME280;4275;42.854;23.222;2024-03-22T11:51:19;57037.38;;;-141.02;65.64
8477;BME280;4275;42.854;23.222;2024-03-22T11:53:49;57901.16;;;-141.02;64.86
8477;BME280;4275;42.854;23.222;2024-03-22T11:56:18;57461.53;;;-141.02;62.26
8477;BME280;4275;42.854;23.222;2024-03-22T11:58:46;56950.63;;;-141.02;62.79
8477;BME280;4275;42.854;23.222;2024-03-22T12:01:13;57147.25;;;-141.02;63.18
8477;BME280;4275;42.854;23.222;2024-03-22T12:03:43;58491.25;;;-141.02;63.72
8477;BME280;4275;42.854;23.222;2024-03-22T12:06:11;59216.53;;;-141.02;64.17
8477;BME280;4275;42.854;23.222;2024-03-22T12:08:38;56804.09;;;-141.02;61.83
8477;BME280;4275;42.854;23.222;2024-03-22T12:11:07;56283.66;;;-141.02;61.79
8477;BME280;4275;42.854;23.222;2024-03-22T12:13:34;56185.38;;;-141.02;61.43
8477;BME280;4275;42.854;23.222;2024-03-22T12:16:00;54108.31;;;-141.02;61.01
8477;BME280;4275;42.854;23.222;2024-03-22T12:18:26;54524.41;;;-141.02;61.04
8477;BME280;4275;42.854;23.222;2024-03-22T12:20:53;54470.47;;;-141.02;60.83
8477;BME280;4275;42.854;23.222;2024-03-22T12:23:21;54025.50;;;-141.02;61.83
8477;BME280;4275;42.854;23.222;2024-03-22T12:25:49;54033.22;;;-141.02;62.03
8477;BME280;4275;42.854;23.222;2024-03-22T12:28:16;53700.00;;;-141.02;62.50
8477;BME280;4275;42.854;23.222;2024-03-22T12:30:42;54054.38;;;-141.02;63.05
8477;BME280;4275;42.854;23.222;2024-03-22T12:33:09;55017.59;;;-141.02;62.91
8477;BME280;4275;42.854;23.222;2024-03-22T12:35:36;54663.09;;;-141.02;61.34
8477;BME280;4275;42.854;23.222;2024-03-22T12:38:03;54445.41;;;-141.02;60.52
8477;BME280;4275;42.854;23.222;2024-03-22T12:40:30;55676.59;;;-141.02;61.68
8477;BME280;4275;42.854;23.222;2024-03-22T12:42:58;55745.97;;;-141.02;59.40
8477;BME280;4275;42.854;23.222;2024-03-22T12:45:24;55867.38;;;-141.02;59.24